Time;durP1;ratioP1;P1;durP2;ratioP2;P2;SDS_P1;SDS_P2;PMS_P1;PMS_P2;Temp;Humidity;BMP_temperature;BMP_pressure;BME280_temperature;BME280_humidity;BME280_pressure;Samples;Min_cycle;Max_cycle;Signal;HPM_P1;HPM_P2
2022/02/02 00:00:40;;;;;;;9.53;4.87;;;7.30;1.00;7.70;100103.00;;;;5063936;28;20490;-81
2022/02/02 00:03:10;;;;;;;8.10;2.70;;;7.40;1.00;7.80;100121.00;;;;5073500;28;20601;-82
2022/02/02 00:05:55;;;;;;;8.63;2.60;;;7.50;1.00;7.90;100106.00;;;;5078263;28;20551;-81
2022/02/02 00:08:27;;;;;;;12.10;3.20;;;7.50;1.00;7.90;100123.00;;;;5059719;28;20451;-83
2022/02/02 00:13:54;;;;;;;7.20;2.23;;;7.60;1.00;8.00;100132.00;;;;5073224;28;20447;-82
2022/02/02 00:16:39;;;;;;;12.07;2.70;;;7.70;1.00;8.00;68037.00;;;;5068656;28;20523;-81
2022/02/02 00:19:17;;;;;;;12.53;3.80;;;7.70;1.00;8.10;100119.00;;;;5065893;28;20463;-82
2022/02/02 00:21:48;;;;;;;9.73;2.40;;;7.90;1.00;8.20;100119.00;;;;5065145;28;20455;-81
2022/02/02 00:24:25;;;;;;;11.70;2.73;;;7.90;1.00;8.30;68087.00;;;;5064163;28;20459;-82
2022/02/02 00:26:57;;;;;;;14.40;3.13;;;7.90;1.00;8.20;100117.00;;;;5053317;28;20468;-82
2022/02/02 00:29:32;;;;;;;15.70;5.63;;;8.00;1.00;217.30;160198.00;;;;5046786;28;20930;-80
2022/02/02 00:32:08;;;;;;;17.43;3.50;;;7.90;1.00;8.20;100125.00;;;;5048032;28;20452;-81
2022/02/02 00:34:38;;;;;;;12.40;2.90;;;8.00;1.00;8.40;100124.00;;;;5049368;28;20443;-81
2022/02/02 00:37:06;;;;;;;14.60;3.53;;;8.10;1.00;8.40;100145.00;;;;5046154;28;20476;-81
2022/02/02 00:39:34;;;;;;;15.40;3.77;;;8.10;1.00;8.40;100137.00;;;;5047517;28;21123;-80
2022/02/02 00:42:03;;;;;;;15.30;3.80;;;8.20;1.00;8.40;100136.00;;;;5045610;28;20448;-80
2022/02/02 00:44:33;;;;;;;13.47;3.87;;;8.20;1.00;8.40;100126.00;;;;5046271;28;20476;-81
2022/02/02 00:47:02;;;;;;;15.43;3.47;;;8.20;1.00;8.40;100114.00;;;;5044407;28;20480;-81
2022/02/02 00:49:31;;;;;;;15.20;4.10;;;8.20;1.00;8.50;100104.00;;;;5044070;28;20476;-81
2022/02/02 00:52:02;;;;;;;12.03;4.53;;;8.20;1.00;8.50;100116.00;;;;5046773;28;20464;-85
2022/02/02 00:54:30;;;;;;;14.70;3.30;;;8.30;1.00;8.50;68140.00;;;;5063643;28;20452;-79
2022/02/02 00:56:59;;;;;;;16.83;3.63;;;8.30;1.00;8.50;100120.00;;;;5046285;28;20490;-81
2022/02/02 00:59:27;;;;;;;14.63;4.00;;;8.30;1.00;8.50;100114.00;;;;5045320;28;20479;-81
2022/02/02 01:01:55;;;;;;;18.50;4.30;;;8.30;1.00;8.50;68152.00;;;;5048310;28;21258;-81
2022/02/02 01:04:25;;;;;;;11.87;4.00;;;8.30;1.00;8.60;100095.00;;;;5049401;28;20448;-81
2022/02/02 01:07:02;;;;;;;20.13;4.20;;;8.30;1.00;8.50;100089.00;;;;5049422;28;20443;-81
2022/02/02 01:09:35;;;;;;;13.27;3.60;;;8.30;1.00;8.50;100101.00;;;;5047767;28;21082;-82
2022/02/02 01:20:36;;;;;;;22.57;4.53;;;8.30;1.00;8.50;68152.00;;;;5027900;28;20479;-81
2022/02/02 01:28:41;;;;;;;16.27;4.17;;;8.40;1.00;8.60;100105.00;;;;5046784;28;20967;-80
2022/02/02 01:31:12;;;;;;;16.10;4.63;;;8.40;1.00;8.60;68165.00;;;;5046898;28;20468;-80
2022/02/02 01:33:40;;;;;;;19.17;4.60;;;8.40;1.00;8.60;100133.00;;;;5049275;28;20467;-80
2022/02/02 01:36:09;;;;;;;17.37;4.90;;;8.50;1.00;8.70;68188.00;;;;5047984;28;21060;-80
2022/02/02 01:38:39;;;;;;;14.90;3.40;;;8.40;1.00;8.80;100144.00;;;;5051665;28;20451;-80
2022/02/02 01:41:16;;;;;;;11.73;3.07;;;8.50;1.00;8.80;100147.00;;;;5056829;28;20483;-81
2022/02/02 01:43:50;;;;;;;22.43;4.47;;;8.60;1.00;8.70;100179.00;;;;5054818;28;20459;-82
2022/02/02 01:46:20;;;;;;;19.13;4.70;;;8.70;1.00;52.70;160414.00;;;;5055275;28;20510;-81
2022/02/02 01:48:58;;;;;;;17.13;4.67;;;8.50;1.00;52.70;160436.00;;;;5064965;28;20831;-80
2022/02/02 01:54:35;;;;;;;23.77;4.30;;;8.60;1.00;8.80;100151.00;;;;5061726;28;20459;-82
2022/02/02 01:57:19;;;;;;;20.07;4.70;;;8.70;1.00;8.80;100161.00;;;;5051376;28;20509;-82
2022/02/02 01:59:48;;;;;;;13.23;4.77;;;8.60;1.00;8.80;100151.00;;;;5047204;28;20476;-81
2022/02/02 02:02:17;;;;;;;20.30;4.43;;;8.70;1.00;8.80;100150.00;;;;5063593;28;20460;-82
2022/02/02 02:04:48;;;;;;;20.77;4.97;;;8.70;1.00;8.80;100164.00;;;;5047327;28;20509;-81
2022/02/02 02:07:17;;;;;;;13.33;3.80;;;8.60;1.00;8.80;100165.00;;;;5046977;28;20455;-81
2022/02/02 02:09:46;;;;;;;22.33;4.40;;;8.60;1.00;8.90;100164.00;;;;5046860;28;20471;-81
2022/02/02 02:12:15;;;;;;;12.87;4.33;;;8.70;1.00;8.80;100168.00;;;;5046268;28;20462;-81
2022/02/02 02:14:51;;;;;;;14.77;4.10;;;8.70;1.00;8.80;100174.00;;;;5046846;28;20456;-81
2022/02/02 02:17:22;;;;;;;14.67;5.50;;;8.70;1.00;8.70;100165.00;;;;5051265;28;20464;-81
2022/02/02 02:19:52;;;;;;;19.67;4.90;;;8.50;1.00;8.60;100152.00;;;;5054276;28;20475;-82
2022/02/02 02:22:24;;;;;;;17.10;5.80;;;8.50;1.00;8.60;100152.00;;;;5053757;28;20460;-82
2022/02/02 02:24:53;;;;;;;19.70;6.87;;;8.40;1.00;8.50;100161.00;;;;5047664;28;20452;-80
2022/02/02 02:27:24;;;;;;;20.07;5.43;;;8.30;1.00;8.50;100159.00;;;;5045936;28;20495;-80
2022/02/02 02:30:06;;;;;;;20.50;5.27;;;8.30;1.00;8.60;100160.00;;;;5046851;28;20525;-80
2022/02/02 02:33:08;;;;;;;21.63;5.30;;;8.40;1.00;8.60;100161.00;;;;5045172;28;20979;-81
2022/02/02 02:58:21;;;;;;;14.00;3.53;;;8.30;1.00;8.40;100197.00;;;;5012110;28;21496;-81
2022/02/02 03:01:12;;;;;;;13.43;3.80;;;8.20;1.00;8.40;100189.00;;;;5056069;28;20489;-83
2022/02/02 03:31:41;;;;;;;17.60;3.53;;;8.30;1.00;8.50;68156.00;;;;5081294;28;20503;-82
2022/02/02 03:51:25;;;;;;;14.20;4.70;;;8.40;1.00;8.60;100213.00;;;;5079974;28;20460;-82
2022/02/02 03:57:21;;;;;;;15.70;3.90;;;8.30;1.00;8.50;100213.00;;;;5054504;28;20431;-81
2022/02/02 04:00:10;;;;;;;18.57;5.57;;;8.40;1.00;217.30;160341.00;;;;5078134;28;20532;-82
2022/02/02 04:02:54;;;;;;;15.70;3.83;;;8.30;1.00;8.40;100205.00;;;;5077370;28;20455;-82
2022/02/02 04:05:34;;;;;;;18.67;4.43;;;8.20;1.00;8.30;100197.00;;;;5065641;28;20513;-82
2022/02/02 04:08:18;;;;;;;20.03;4.70;;;8.10;1.00;8.30;100194.00;;;;5070155;28;20475;-83
2022/02/02 04:10:47;;;;;;;18.57;5.20;;;8.10;1.00;8.30;100184.00;;;;5067455;28;20485;-83
2022/02/02 04:13:25;;;;;;;14.00;4.60;;;8.00;1.00;8.30;100201.00;;;;5077628;28;20463;-82
2022/02/02 04:38:49;;;;;;;15.80;4.40;;;7.90;1.00;8.10;100244.00;;;;5070989;28;20480;-82
2022/02/02 04:52:55;;;;;;;20.20;5.17;;;8.00;1.00;8.20;100226.00;;;;5065245;28;20464;-81
2022/02/02 04:55:29;;;;;;;15.07;4.50;;;8.00;1.00;217.30;160265.00;;;;5062374;28;20452;-80
2022/02/02 04:58:13;;;;;;;19.83;4.47;;;8.10;1.00;8.40;68107.00;;;;5068761;28;20869;-81
2022/02/02 05:01:21;;;;;;;18.63;4.57;;;8.10;1.00;8.40;100255.00;;;;5059279;28;20479;-81
2022/02/02 05:04:19;;;;;;;23.23;5.73;;;8.20;1.00;8.30;100272.00;;;;5062546;28;20530;-82
2022/02/02 05:06:52;;;;;;;22.07;6.27;;;8.10;1.00;8.10;100261.00;;;;5060662;28;20447;-81
2022/02/02 05:09:34;;;;;;;17.23;4.90;;;7.90;1.00;8.00;100268.00;;;;5076533;28;20462;-81
2022/02/02 05:12:51;;;;;;;22.73;6.07;;;7.90;1.00;8.00;100242.00;;;;5059564;28;20450;-83
2022/02/02 05:18:15;;;;;;;18.90;5.30;;;7.60;1.00;7.80;67996.00;;;;5061919;28;20487;-83
2022/02/02 05:21:09;;;;;;;23.43;5.17;;;7.50;1.00;7.80;100239.00;;;;5069610;28;20498;-83
2022/02/02 05:48:36;;;;;;;15.20;4.23;;;7.60;1.00;7.90;100237.00;;;;5064736;28;21478;-81
2022/02/02 05:51:21;;;;;;;15.13;4.50;;;7.60;1.00;7.90;100238.00;;;;5064964;28;20479;-81
2022/02/02 05:53:50;;;;;;;20.47;4.80;;;7.70;1.00;7.90;100246.00;;;;5065330;28;20967;-82
2022/02/02 05:56:19;;;;;;;21.73;4.83;;;7.70;1.00;8.00;100260.00;;;;5065529;28;20459;-82
2022/02/02 05:58:49;;;;;;;16.00;4.90;;;7.80;1.00;8.10;100252.00;;;;5067702;28;21247;-82
2022/02/02 06:01:18;;;;;;;15.50;5.83;;;7.80;1.00;8.00;68037.00;;;;5069329;28;20467;-82
2022/02/02 06:03:53;;;;;;;12.10;3.87;;;7.80;1.00;8.10;100278.00;;;;5065137;28;20479;-82
2022/02/02 06:06:24;;;;;;;18.90;5.07;;;7.80;1.00;8.10;100276.00;;;;5071159;28;20465;-81
2022/02/02 06:08:54;;;;;;;14.87;4.37;;;8.10;1.00;8.20;100279.00;;;;5065063;28;20862;-81
2022/02/02 06:11:24;;;;;;;19.37;5.77;;;7.90;1.00;8.20;100285.00;;;;5061368;28;20539;-80
2022/02/02 06:13:57;;;;;;;16.57;4.60;;;8.00;1.00;8.30;100265.00;;;;5061742;28;20463;-82
2022/02/02 06:16:29;;;;;;;15.43;4.50;;;8.10;1.00;217.30;160265.00;;;;5066451;28;20451;-82
2022/02/02 06:19:01;;;;;;;19.40;6.17;;;8.10;1.00;8.30;100290.00;;;;5067724;28;20464;-83
2022/02/02 06:21:31;;;;;;;22.10;6.13;;;8.20;1.00;8.30;100286.00;;;;5072970;28;20482;-83
2022/02/02 06:24:08;;;;;;;16.70;4.80;;;8.20;1.00;8.40;100294.00;;;;5074798;28;20506;-83
2022/02/02 06:26:42;;;;;;;15.70;4.50;;;8.20;1.00;8.40;68131.00;;;;5062847;28;20447;-82
2022/02/02 06:29:14;;;;;;;12.23;4.30;;;8.20;1.00;8.40;100307.00;;;;5062266;28;20460;-83
2022/02/02 06:31:43;;;;;;;13.00;3.80;;;8.20;1.00;8.40;100318.00;;;;5065911;28;20501;-83
2022/02/02 06:34:14;;;;;;;14.77;3.50;;;8.20;1.00;8.40;100322.00;;;;5064551;28;20447;-83
2022/02/02 06:36:43;;;;;;;11.73;3.97;;;8.20;1.00;8.40;100332.00;;;;5073896;28;20468;-83
2022/02/02 06:39:13;;;;;;;14.23;3.43;;;8.10;1.00;8.40;100310.00;;;;5064073;28;20482;-82
2022/02/02 06:41:42;;;;;;;12.07;3.23;;;8.20;1.00;8.50;100340.00;;;;5059600;28;20444;-83
2022/02/02 06:44:11;;;;;;;13.93;4.83;;;8.20;1.00;52.70;160313.00;;;;5067678;28;21071;-83
2022/02/02 06:46:40;;;;;;;13.37;3.57;;;8.20;1.00;8.50;100345.00;;;;5061885;28;20467;-82
2022/02/02 06:49:10;;;;;;;16.53;5.07;;;8.20;1.00;8.50;68143.00;;;;5063599;28;20452;-83
2022/02/02 06:51:47;;;;;;;19.97;4.27;;;8.20;1.00;8.50;100338.00;;;;5062538;28;20443;-83
2022/02/02 06:58:06;;;;;;;18.63;5.07;;;8.20;1.00;8.60;100341.00;;;;5062810;28;20477;-82
2022/02/02 07:00:52;;;;;;;17.03;5.07;;;8.30;1.00;8.60;100323.00;;;;5066654;28;20484;-82
2022/02/02 07:03:31;;;;;;;16.93;4.23;;;8.30;1.00;8.60;100340.00;;;;5061692;28;20436;-82
2022/02/02 07:06:10;;;;;;;14.23;3.13;;;8.30;1.00;8.70;100353.00;;;;5060067;28;20551;-82
2022/02/02 07:08:57;;;;;;;22.60;5.17;;;8.30;1.00;8.60;100363.00;;;;5060217;28;20470;-82
2022/02/02 07:11:38;;;;;;;18.53;3.70;;;8.30;1.00;8.70;100371.00;;;;5060472;28;21023;-83
2022/02/02 07:14:17;;;;;;;17.60;4.80;;;8.60;1.00;8.70;100372.00;;;;5064778;28;20448;-82
2022/02/02 07:17:03;;;;;;;22.67;4.80;;;8.40;1.00;217.30;160440.00;;;;5069407;28;20566;-81
2022/02/02 07:19:45;;;;;;;13.80;3.60;;;8.40;1.00;8.80;100363.00;;;;5064155;28;21517;-82
2022/02/02 07:22:40;;;;;;;18.63;5.40;;;8.50;1.00;8.80;100370.00;;;;5071044;28;20466;-83
2022/02/02 07:25:27;;;;;;;14.27;5.27;;;8.80;1.00;8.90;68222.00;;;;5082358;28;20472;-83
2022/02/02 07:28:04;;;;;;;14.33;3.80;;;8.60;1.00;8.90;100379.00;;;;5075283;28;20451;-83
2022/02/02 07:30:49;;;;;;;22.33;5.20;;;8.60;1.00;8.90;100376.00;;;;5069617;28;20474;-83
2022/02/02 07:33:27;;;;;;;18.17;4.90;;;8.60;1.00;9.00;100280.00;;;;5073357;28;20488;-85
2022/02/02 07:36:03;;;;;;;21.20;4.23;;;8.70;1.00;9.00;100404.00;;;;5071303;28;20965;-83
2022/02/02 07:38:46;;;;;;;15.60;4.17;;;8.70;1.00;9.00;100394.00;;;;5065237;28;20964;-83
2022/02/02 07:41:25;;;;;;;17.50;5.50;;;8.70;1.00;8.90;100401.00;;;;5063235;28;20479;-83
2022/02/02 07:44:00;;;;;;;12.50;4.20;;;8.70;1.00;9.00;100412.00;;;;5060811;28;20456;-83
2022/02/02 07:46:29;;;;;;;14.83;5.83;;;8.70;1.00;8.90;100415.00;;;;5064795;28;20454;-82
2022/02/02 07:49:00;;;;;;;20.33;5.10;;;8.80;1.00;9.00;100435.00;;;;5063350;28;21294;-83
2022/02/02 07:51:31;;;;;;;17.10;4.30;;;8.60;1.00;9.00;100431.00;;;;5058914;28;20470;-80
2022/02/02 07:54:03;;;;;;;18.97;4.50;;;8.70;1.00;8.90;100456.00;;;;5062038;28;20444;-82
2022/02/02 07:56:41;;;;;;;17.10;4.20;;;8.70;1.00;9.00;100455.00;;;;5062364;28;20451;-83
2022/02/02 07:59:18;;;;;;;18.90;4.97;;;8.70;1.00;9.00;100472.00;;;;5065929;28;20506;-81
2022/02/02 08:01:49;;;;;;;12.23;3.10;;;8.80;1.00;9.00;100452.00;;;;5061497;28;20546;-81
2022/02/02 08:04:21;;;;;;;12.07;3.17;;;8.70;1.00;9.00;100475.00;;;;5069840;28;20454;-81
2022/02/02 08:06:53;;;;;;;17.67;3.43;;;8.70;1.00;8.90;68244.00;;;;5063639;28;20456;-82
2022/02/02 08:09:31;;;;;;;16.23;4.53;;;8.60;1.00;8.90;68237.00;;;;5061710;28;20805;-83
2022/02/02 08:12:00;;;;;;;12.63;3.73;;;8.60;1.00;217.30;160535.00;;;;5060606;28;20448;-82
2022/02/02 08:14:33;;;;;;;12.07;3.43;;;8.60;1.00;9.00;100504.00;;;;5071532;28;20509;-82
2022/02/02 08:17:01;;;;;;;18.50;5.53;;;8.70;1.00;9.10;100496.00;;;;5066638;28;21487;-82
2022/02/02 08:19:31;;;;;;;12.13;3.37;;;8.70;1.00;217.30;160621.00;;;;5060511;28;20482;-81
2022/02/02 08:22:00;;;;;;;13.90;3.53;;;8.80;1.00;9.20;68302.00;;;;5075942;28;20463;-82
2022/02/02 08:24:28;;;;;;;14.47;3.80;;;8.90;1.00;9.20;100491.00;;;;5066597;28;20448;-82
2022/02/02 08:26:57;;;;;;;14.00;3.50;;;8.90;1.00;9.30;100492.00;;;;5060622;28;20460;-82
2022/02/02 08:29:26;;;;;;;18.53;4.10;;;8.90;1.00;9.40;100489.00;;;;5065490;28;20451;-82
2022/02/02 08:31:55;;;;;;;18.17;4.47;;;9.00;1.00;9.40;100476.00;;;;5072150;28;20464;-83
2022/02/02 08:34:24;;;;;;;16.70;3.73;;;9.10;1.00;9.40;100484.00;;;;5059794;28;20905;-81
2022/02/02 08:36:55;;;;;;;15.40;4.83;;;9.10;1.00;9.40;100497.00;;;;5058546;28;20462;-82
2022/02/02 08:39:39;;;;;;;10.23;3.60;;;9.00;1.00;9.40;100499.00;;;;5078447;28;20525;-83
2022/02/02 08:42:12;;;;;;;7.90;2.80;;;9.00;1.00;9.50;100504.00;;;;5084461;28;20443;-82
2022/02/02 08:44:46;;;;;;;11.70;3.23;;;9.00;1.00;9.50;100510.00;;;;5087575;28;20427;-83
2022/02/02 08:47:18;;;;;;;16.30;3.47;;;9.10;1.00;9.50;100532.00;;;;5085132;28;20455;-83
2022/02/02 08:49:53;;;;;;;18.27;3.97;;;9.10;1.00;9.60;68384.00;;;;5093617;28;20491;-83
2022/02/02 08:52:32;;;;;;;6.77;2.00;;;9.10;1.00;9.60;100526.00;;;;5082555;28;20485;-85
2022/02/02 08:55:34;;;;;;;10.40;2.73;;;9.40;1.00;9.80;100521.00;;;;5079822;28;20490;-82
2022/02/02 08:58:20;;;;;;;13.43;3.40;;;9.30;1.00;9.90;100512.00;;;;5082173;28;20478;-82
2022/02/02 09:00:51;;;;;;;12.07;2.40;;;9.50;1.00;10.00;100536.00;;;;5087072;28;20520;-82
2022/02/02 09:06:01;;;;;;;10.40;2.27;;;9.60;1.00;9.90;100556.00;;;;5075908;28;20482;-83
2022/02/02 09:08:32;;;;;;;6.50;2.60;;;9.50;1.00;9.70;100551.00;;;;5078014;28;20438;-82
2022/02/02 09:25:12;;;;;;;9.03;2.63;;;8.80;1.00;8.90;100563.00;;;;5066116;28;20820;-82
2022/02/02 09:36:01;;;;;;;11.83;2.77;;;8.20;1.00;8.70;100596.00;;;;5072893;28;20436;-83
2022/02/02 09:38:29;;;;;;;7.37;1.83;;;8.30;1.00;8.80;100597.00;;;;5089254;28;20443;-82
2022/02/02 09:43:55;;;;;;;8.00;2.73;;;8.40;1.00;8.70;100624.00;;;;5082643;28;20567;-82
2022/02/02 09:46:25;;;;;;;11.80;2.97;;;8.40;1.00;217.30;160373.00;;;;5087563;28;20460;-81
2022/02/02 09:48:57;;;;;;;5.47;2.00;;;8.20;1.00;8.50;68148.00;;;;5081034;28;20464;-83
2022/02/02 09:51:30;;;;;;;19.30;3.30;;;8.20;1.00;8.40;68118.00;;;;5082564;28;20723;-82
2022/02/02 09:54:03;;;;;;;8.17;2.73;;;8.00;1.00;8.30;68087.00;;;;5079029;28;20424;-81
2022/02/02 09:57:13;;;;;;;8.17;2.77;;;7.90;1.00;8.10;100286.00;;;;5078839;28;20486;-82
2022/02/02 10:00:15;;;;;;;11.40;2.57;;;7.70;1.00;8.00;68037.00;;;;5076462;28;20497;-82
2022/02/02 10:05:35;;;;;;;7.00;2.67;;;7.70;1.00;8.30;100654.00;;;;5055614;28;20466;-82
2022/02/02 10:08:49;;;;;;;5.33;1.67;;;7.80;1.00;217.30;160275.00;;;;5070746;28;20622;-81
2022/02/02 10:14:36;;;;;;;8.53;1.67;;;8.30;1.00;217.30;160535.00;;;;5061297;28;20448;-82
2022/02/02 10:17:10;;;;;;;6.47;1.87;;;8.30;1.00;9.00;100652.00;;;;5061952;28;20464;-82
2022/02/02 10:19:39;;;;;;;6.87;2.27;;;8.70;1.00;9.10;100655.00;;;;5060032;28;20496;-82
2022/02/02 10:22:29;;;;;;;8.63;2.60;;;8.70;1.00;9.30;100632.00;;;;5061551;28;20447;-82
2022/02/02 10:25:00;;;;;;;9.57;3.80;;;9.00;1.00;9.70;100626.00;;;;5062007;28;20439;-82
2022/02/02 10:27:35;;;;;;;10.23;2.63;;;9.30;1.00;9.90;68451.00;;;;5060414;28;20459;-82
2022/02/02 10:30:20;;;;;;;9.27;3.00;;;9.80;1.00;9.90;100622.00;;;;5061526;28;21298;-82
2022/02/02 10:32:51;;;;;;;11.40;3.10;;;9.60;1.00;10.00;100638.00;;;;5070334;28;20436;-81
2022/02/02 10:35:35;;;;;;;8.33;2.90;;;9.70;1.00;10.10;100641.00;;;;5072155;28;20549;-81
2022/02/02 10:38:25;;;;;;;6.13;3.30;;;9.80;1.00;10.20;100663.00;;;;5059706;28;20549;-83
2022/02/02 10:41:04;;;;;;;13.33;3.57;;;9.90;1.00;10.30;100652.00;;;;5059368;28;20471;-81
2022/02/02 10:43:38;;;;;;;11.83;3.07;;;10.00;1.00;10.50;100639.00;;;;5056249;28;20516;-82
2022/02/02 10:46:16;;;;;;;12.23;3.87;;;10.20;1.00;10.70;100651.00;;;;5064182;28;20447;-82
2022/02/02 10:48:49;;;;;;;5.33;3.13;;;10.40;1.00;10.70;100636.00;;;;5060041;28;20504;-83
2022/02/02 10:51:24;;;;;;;7.20;2.90;;;10.50;1.00;10.70;100632.00;;;;5060819;28;20566;-83
2022/02/02 10:54:16;;;;;;;6.90;3.10;;;10.60;1.00;10.80;100637.00;;;;5064834;28;20451;-83
2022/02/02 10:56:51;;;;;;;15.53;3.50;;;10.60;1.00;11.00;100614.00;;;;5067207;28;20447;-84
2022/02/02 10:59:33;;;;;;;13.17;3.00;;;10.70;1.00;11.00;100600.00;;;;5065627;28;20492;-84
2022/02/02 11:07:37;;;;;;;7.10;2.73;;;10.60;1.00;10.80;100642.00;;;;5059393;28;20443;-83
2022/02/02 11:10:06;;;;;;;9.70;2.97;;;10.50;1.00;10.70;100655.00;;;;5062035;28;20547;-83
2022/02/02 11:12:38;;;;;;;16.13;3.70;;;10.30;1.00;10.70;100638.00;;;;5063924;28;20458;-83
2022/02/02 11:15:22;;;;;;;6.33;2.57;;;10.30;1.00;10.80;100647.00;;;;5063526;28;21022;-83
2022/02/02 11:18:03;;;;;;;11.60;4.87;;;10.40;1.00;10.80;100644.00;;;;5062730;28;20476;-84
2022/02/02 11:20:32;;;;;;;14.77;2.87;;;10.40;1.00;11.10;100648.00;;;;5064439;28;20497;-82
2022/02/02 11:23:01;;;;;;;11.10;3.80;;;10.70;1.00;11.70;100669.00;;;;5059816;28;20455;-83
2022/02/02 11:25:36;;;;;;;11.40;3.27;;;11.30;1.00;12.00;100642.00;;;;5063961;28;20960;-81
2022/02/02 11:28:32;;;;;;;8.53;3.93;;;11.70;1.00;12.20;100427.00;;;;5063385;28;20465;-82
2022/02/02 11:31:14;;;;;;;13.90;3.53;;;12.00;1.00;12.10;100664.00;;;;5063820;28;20536;-84
2022/02/02 11:33:55;;;;;;;13.87;3.40;;;11.80;1.00;12.10;100671.00;;;;5069105;28;20453;-83
2022/02/02 11:36:31;;;;;;;16.13;4.57;;;12.00;1.00;11.80;100671.00;;;;5060581;28;20451;-82
2022/02/02 11:39:03;;;;;;;14.57;3.70;;;11.70;1.00;11.50;100675.00;;;;5064385;28;20455;-83
2022/02/02 11:44:40;;;;;;;17.10;3.70;;;11.30;1.00;11.80;100685.00;;;;5060048;28;20567;-82
2022/02/02 11:47:21;;;;;;;10.63;3.20;;;11.50;1.00;11.80;100687.00;;;;5061187;28;20451;-83
2022/02/02 11:49:55;;;;;;;17.40;4.07;;;11.50;1.00;11.80;100686.00;;;;5063779;28;20510;-83
2022/02/02 11:52:43;;;;;;;6.70;2.10;;;11.40;1.00;11.70;100683.00;;;;5073295;28;20442;-83
2022/02/02 11:55:45;;;;;;;14.53;4.37;;;11.30;1.00;11.60;100693.00;;;;5066006;28;20554;-83
2022/02/02 11:58:32;;;;;;;13.43;3.27;;;11.20;1.00;11.60;100666.00;;;;5076277;28;20443;-83
2022/02/02 12:01:13;;;;;;;11.43;3.57;;;11.20;1.00;11.60;100678.00;;;;5073018;28;20551;-83
2022/02/02 12:04:06;;;;;;;14.63;4.13;;;11.10;1.00;11.50;100682.00;;;;5078590;28;20463;-83
2022/02/02 12:09:40;;;;;;;11.03;3.37;;;11.20;1.00;11.60;100690.00;;;;5066891;28;20456;-83
2022/02/02 12:48:57;;;;;;;10.20;2.30;;;11.40;1.00;11.80;68875.00;;;;5081253;28;20448;-82
2022/02/02 12:57:00;;;;;;;13.17;2.60;;;10.80;1.00;11.10;100463.00;;;;5055766;28;20452;-84
2022/02/02 13:02:18;;;;;;;11.47;3.20;;;10.60;1.00;11.10;100470.00;;;;5061199;28;20494;-82
2022/02/02 13:04:52;;;;;;;10.20;3.37;;;10.60;1.00;11.10;68720.00;;;;5075952;28;20474;-83
2022/02/02 13:07:25;;;;;;;10.93;4.00;;;10.70;1.00;11.10;100715.00;;;;5079698;28;20446;-82
2022/02/02 13:09:54;;;;;;;10.47;3.57;;;10.70;1.00;11.10;100717.00;;;;5077952;28;20629;-82
2022/02/02 13:12:35;;;;;;;9.37;3.00;;;10.60;1.00;10.90;68674.00;;;;5070907;28;20542;-84
2022/02/02 13:15:16;;;;;;;10.87;3.50;;;10.50;1.00;10.70;100743.00;;;;5066675;28;20486;-84
2022/02/02 13:18:02;;;;;;;9.67;3.07;;;10.30;1.00;217.30;161166.00;;;;5065239;28;20462;-82
2022/02/02 13:23:24;;;;;;;9.43;2.37;;;9.90;1.00;10.30;100787.00;;;;5062672;28;20491;-81
2022/02/02 13:25:56;;;;;;;5.53;1.97;;;9.80;1.00;10.40;100807.00;;;;5082741;28;20482;-81
2022/02/02 13:28:52;;;;;;;6.63;2.43;;;10.00;1.00;10.70;100773.00;;;;5076657;28;20543;-81
2022/02/02 13:31:38;;;;;;;5.17;2.43;;;10.20;1.00;10.80;100791.00;;;;5079085;28;20493;-79
2022/02/02 13:34:14;;;;;;;10.00;2.40;;;10.30;1.00;11.10;100772.00;;;;5086012;28;20447;-85
2022/02/02 13:43:07;;;;;;;12.10;3.27;;;11.00;1.00;11.90;100750.00;;;;5068646;28;20463;-81
2022/02/02 13:45:49;;;;;;;12.77;2.60;;;11.50;1.00;11.80;100767.00;;;;5067277;28;20501;-82
2022/02/02 13:51:25;;;;;;;12.83;4.57;;;11.30;1.00;11.80;100765.00;;;;5063181;28;20526;-81
2022/02/02 13:54:12;;;;;;;8.33;2.63;;;11.30;1.00;12.00;100789.00;;;;5069551;28;20474;-80
2022/02/02 14:09:00;;;;;;;8.80;3.03;;;12.10;1.00;12.00;100779.00;;;;5062764;28;20593;-86
2022/02/02 14:11:27;;;;;;;8.83;2.80;;;11.80;1.00;11.90;100761.00;;;;5060343;28;21007;-84
2022/02/02 14:33:29;;;;;;;10.90;2.73;;;12.70;1.00;13.00;100603.00;;;;5069059;28;20456;-80
2022/02/02 14:36:02;;;;;;;11.43;3.20;;;12.70;1.00;13.00;100760.00;;;;5077142;28;20531;-85
2022/02/02 14:38:37;;;;;;;5.47;2.40;;;12.60;1.00;12.80;100569.00;;;;5084116;28;20475;-86
2022/02/02 14:41:13;;;;;;;11.20;3.17;;;12.40;1.00;13.10;100522.00;;;;5071509;28;20510;-85
2022/02/02 14:43:49;;;;;;;12.70;3.80;;;12.70;1.00;12.80;100620.00;;;;5071487;28;20983;-79
2022/02/02 14:46:22;;;;;;;13.23;3.50;;;12.50;1.00;12.80;100743.00;;;;5062804;28;20451;-80
2022/02/02 14:48:54;;;;;;;10.57;3.00;;;12.50;1.00;12.70;100601.00;;;;5063770;28;20456;-82
2022/02/02 14:51:35;;;;;;;12.60;4.07;;;12.40;1.00;12.80;100581.00;;;;5059715;28;20479;-82
2022/02/02 15:28:43;;;;;;;13.10;3.60;;;11.40;1.00;11.50;100620.00;;;;5066917;28;20451;-85
2022/02/02 15:31:11;;;;;;;11.10;3.13;;;11.10;1.00;11.30;100582.00;;;;5058214;28;21013;-86
2022/02/02 15:33:40;;;;;;;15.33;3.33;;;10.80;1.00;11.20;100629.00;;;;5060652;28;20443;-84
2022/02/02 15:36:39;;;;;;;11.03;3.27;;;10.70;1.00;11.00;100618.00;;;;5062971;28;20559;-84
2022/02/02 15:39:09;;;;;;;24.60;4.70;;;10.60;1.00;10.90;100626.00;;;;5060829;28;20531;-85
2022/02/02 15:41:42;;;;;;;17.37;5.07;;;10.40;1.00;10.80;100637.00;;;;5063433;28;20471;-86
2022/02/02 15:55:54;;;;;;;16.80;5.63;;;9.90;1.00;10.40;100826.00;;;;5041347;28;20460;-87
2022/02/02 15:58:19;;;;;;;13.53;3.50;;;9.80;1.00;10.40;100839.00;;;;5092557;28;20481;-84
2022/02/02 16:03:46;;;;;;;13.73;4.80;;;9.70;1.00;10.20;100850.00;;;;5090373;28;20939;-84
2022/02/02 16:06:18;;;;;;;14.57;3.83;;;9.60;1.00;10.10;100867.00;;;;5088381;28;20519;-84
2022/02/02 16:08:50;;;;;;;13.60;4.63;;;9.60;1.00;10.10;100860.00;;;;5083822;28;20866;-84
2022/02/02 16:11:24;;;;;;;16.57;4.67;;;9.60;1.00;10.10;100875.00;;;;5076438;28;20477;-84
2022/02/02 16:13:57;;;;;;;17.23;4.60;;;9.60;1.00;10.10;100872.00;;;;5085054;28;20440;-83
2022/02/02 16:16:43;;;;;;;20.87;5.03;;;9.60;1.00;10.20;100856.00;;;;5064485;28;20444;-84
2022/02/02 16:19:19;;;;;;;12.23;3.60;;;9.70;1.00;10.20;100862.00;;;;5059342;28;20538;-85
2022/02/02 16:24:59;;;;;;;13.90;4.80;;;9.80;1.00;10.30;100859.00;;;;5070441;28;20953;-83
2022/02/02 16:36:02;;;;;;;15.47;3.90;;;9.80;1.00;10.30;100859.00;;;;5063573;28;20443;-85
2022/02/02 16:38:33;;;;;;;18.20;4.30;;;9.80;1.00;10.30;100866.00;;;;5063266;28;20452;-84
2022/02/02 16:41:06;;;;;;;15.40;4.80;;;9.80;1.00;10.30;100861.00;;;;5073959;28;21089;-85
2022/02/02 16:43:33;;;;;;;18.23;4.43;;;9.80;1.00;10.30;100854.00;;;;5065167;28;20559;-88
2022/02/02 16:46:03;;;;;;;13.27;3.60;;;9.80;1.00;10.30;100861.00;;;;5058511;28;20502;-83
2022/02/02 16:48:32;;;;;;;13.60;4.20;;;9.90;1.00;10.30;100739.00;;;;5063768;28;20450;-86
2022/02/02 16:51:04;;;;;;;12.40;4.73;;;9.80;1.00;10.30;100772.00;;;;5069960;28;20558;-83
2022/02/02 16:53:40;;;;;;;18.43;5.30;;;9.80;1.00;10.20;100872.00;;;;5071621;28;20451;-85
2022/02/02 16:56:23;;;;;;;20.07;5.93;;;9.80;1.00;10.20;100885.00;;;;5064723;28;20858;-84
2022/02/02 17:30:14;;;;;;;15.03;4.60;;;9.60;1.00;10.10;100732.00;;;;5078267;28;20494;-84
2022/02/02 17:32:53;;;;;;;14.83;4.60;;;9.70;1.00;10.20;100732.00;;;;5072953;28;20494;-83
2022/02/02 17:35:31;;;;;;;24.97;5.27;;;9.70;1.00;10.20;100767.00;;;;5063050;28;20824;-82
2022/02/02 17:38:08;;;;;;;12.13;4.97;;;9.80;1.00;10.30;100752.00;;;;5063122;28;20463;-84
2022/02/02 17:40:54;;;;;;;23.03;5.40;;;9.80;1.00;10.30;100773.00;;;;5065849;28;20467;-83
2022/02/02 17:44:07;;;;;;;24.60;8.30;;;9.90;1.00;10.30;100775.00;;;;5070169;28;20474;-84
2022/02/02 18:20:12;;;;;;;16.00;6.30;;;8.90;1.00;9.30;100753.00;;;;5064088;28;20460;-82
2022/02/02 18:22:50;;;;;;;19.37;7.10;;;8.80;1.00;9.20;100740.00;;;;5068305;28;20476;-84
2022/02/02 18:25:28;;;;;;;18.63;6.70;;;8.60;1.00;9.10;100754.00;;;;5083380;28;20451;-85
2022/02/02 18:28:04;;;;;;;21.10;6.40;;;8.60;1.00;9.00;100739.00;;;;5066811;28;20443;-84
2022/02/02 18:30:41;;;;;;;20.90;7.37;;;8.50;1.00;9.00;100753.00;;;;5075036;28;20471;-82
2022/02/02 18:33:20;;;;;;;17.43;6.43;;;8.40;1.00;9.00;100724.00;;;;5088486;28;20542;-84
2022/02/02 18:35:56;;;;;;;17.77;6.47;;;8.50;1.00;8.90;100749.00;;;;5082743;28;20484;-85